Time;durP1;ratioP1;P1;durP2;ratioP2;P2;SDS_P1;SDS_P2;PMS_P1;PMS_P2;Temp;Humidity;BMP_temperature;BMP_pressure;BME280_temperature;BME280_humidity;BME280_pressure;Samples;Min_cycle;Max_cycle;Signal;HPM_P1;HPM_P2
2023/04/23 02:00:26;;;;;;;10.30;5.72;;;;;;;;;;4971435;28;20057;-72
2023/04/23 02:02:53;;;;;;;13.18;7.03;;;;;;;;;;4277003;33;20214;-71
2023/04/23 02:05:19;;;;;;;13.73;7.28;;;;;;;;;;4274859;33;20052;-73
2023/04/23 02:07:47;;;;;;;10.90;6.22;;;;;;;;;;4279128;33;20196;-71
2023/04/23 02:10:14;;;;;;;11.43;6.70;;;;;;;;;;4279283;33;20481;-71
2023/04/23 02:12:41;;;;;;;10.23;6.32;;;;;;;;;;4264874;33;20481;-71
2023/04/23 02:15:09;;;;;;;13.48;7.12;;;;;;;;;;4261688;33;20049;-77
2023/04/23 02:17:35;;;;;;;13.52;6.82;;;;;;;;;;4234954;33;20178;-71
2023/04/23 02:20:02;;;;;;;18.33;6.68;;;;;;;;;;4236388;33;20467;-71
2023/04/23 02:22:28;;;;;;;14.30;6.45;;;;;;;;;;4234396;33;20064;-71
2023/04/23 02:24:54;;;;;;;17.90;7.65;;;;;;;;;;4235533;33;20065;-71
2023/04/23 02:27:21;;;;;;;12.05;6.82;;;;;;;;;;4234666;33;20101;-72
2023/04/23 02:29:47;;;;;;;17.37;7.18;;;;;;;;;;4235923;33;20054;-71
2023/04/23 02:32:14;;;;;;;14.77;6.45;;;;;;;;;;4236364;33;20042;-72
2023/04/23 02:34:40;;;;;;;12.90;7.03;;;;;;;;;;4258998;33;20049;-71
2023/04/23 02:37:06;;;;;;;15.45;6.60;;;;;;;;;;4256552;33;20055;-71
2023/04/23 02:39:32;;;;;;;14.48;6.82;;;;;;;;;;4221291;34;20442;-71
2023/04/23 02:41:59;;;;;;;17.98;6.57;;;;;;;;;;4223780;34;20925;-71
2023/04/23 02:44:25;;;;;;;16.62;6.22;;;;;;;;;;4234714;33;20068;-71
2023/04/23 02:46:51;;;;;;;10.50;6.40;;;;;;;;;;4236953;33;20086;-72
2023/04/23 02:49:20;;;;;;;10.40;6.45;;;;;;;;;;4236632;33;20051;-78
2023/04/23 02:51:46;;;;;;;23.77;9.05;;;;;;;;;;4236759;33;20176;-71
2023/04/23 02:54:13;;;;;;;10.75;6.57;;;;;;;;;;4248927;33;20128;-71
2023/04/23 02:56:39;;;;;;;18.85;7.85;;;;;;;;;;4250786;33;20046;-71
2023/04/23 02:59:05;;;;;;;14.10;7.32;;;;;;;;;;4251684;33;20064;-77
2023/04/23 03:01:32;;;;;;;13.98;6.53;;;;;;;;;;4253883;33;20104;-71
2023/04/23 03:03:58;;;;;;;14.02;7.03;;;;;;;;;;4281702;33;20075;-71
2023/04/23 03:06:25;;;;;;;12.70;6.62;;;;;;;;;;4251360;33;20043;-71
2023/04/23 03:08:51;;;;;;;12.75;6.60;;;;;;;;;;4252964;33;20513;-71
2023/04/23 03:11:17;;;;;;;14.20;6.87;;;;;;;;;;4272601;33;20074;-77
2023/04/23 03:13:44;;;;;;;13.40;6.75;;;;;;;;;;4278962;33;20053;-73
2023/04/23 03:16:10;;;;;;;15.82;7.40;;;;;;;;;;4279916;33;20071;-70
2023/04/23 03:18:37;;;;;;;14.57;7.28;;;;;;;;;;4281199;33;20034;-71
2023/04/23 03:21:03;;;;;;;10.18;6.18;;;;;;;;;;4281300;33;20044;-71
2023/04/23 03:23:29;;;;;;;14.43;7.15;;;;;;;;;;4280687;33;20052;-77
2023/04/23 03:25:55;;;;;;;11.23;7.30;;;;;;;;;;4279714;33;20075;-71
2023/04/23 03:28:21;;;;;;;15.50;7.32;;;;;;;;;;4281172;33;20109;-71
2023/04/23 03:30:47;;;;;;;17.48;7.12;;;;;;;;;;4280717;33;20436;-70
2023/04/23 03:33:14;;;;;;;20.20;7.50;;;;;;;;;;4281318;33;20491;-71
2023/04/23 03:35:40;;;;;;;14.35;6.93;;;;;;;;;;4281190;33;20049;-72
2023/04/23 03:38:07;;;;;;;18.48;8.15;;;;;;;;;;4290315;33;20033;-72
2023/04/23 03:40:34;;;;;;;15.35;7.53;;;;;;;;;;4294747;33;20496;-72
2023/04/23 03:43:01;;;;;;;16.23;7.85;;;;;;;;;;4294884;33;20102;-71
2023/04/23 03:45:29;;;;;;;16.45;8.18;;;;;;;;;;4294292;33;20442;-71
2023/04/23 03:47:55;;;;;;;15.73;8.10;;;;;;;;;;4292121;33;20098;-73
2023/04/23 03:50:22;;;;;;;17.60;7.50;;;;;;;;;;4289644;33;20049;-71
2023/04/23 03:52:51;;;;;;;18.73;7.28;;;;;;;;;;4289724;33;20080;-71
2023/04/23 03:55:19;;;;;;;14.77;7.45;;;;;;;;;;4290269;33;20071;-71
2023/04/23 03:57:45;;;;;;;14.05;7.25;;;;;;;;;;4285637;33;20052;-75
2023/04/23 04:00:13;;;;;;;19.27;7.12;;;;;;;;;;4275945;33;20045;-71
2023/04/23 04:02:39;;;;;;;15.65;7.03;;;;;;;;;;4294084;33;20070;-72
2023/04/23 04:05:06;;;;;;;12.45;6.97;;;;;;;;;;4324327;33;20050;-72
2023/04/23 04:07:33;;;;;;;13.40;7.47;;;;;;;;;;4307640;33;20062;-73
2023/04/23 04:10:01;;;;;;;19.50;7.62;;;;;;;;;;4300916;33;20037;-79
2023/04/23 04:12:28;;;;;;;15.23;7.90;;;;;;;;;;4305572;33;20044;-72
2023/04/23 04:14:54;;;;;;;15.82;7.50;;;;;;;;;;4304930;33;20053;-73
2023/04/23 04:17:20;;;;;;;15.48;7.45;;;;;;;;;;4316432;33;20088;-71
2023/04/23 04:19:47;;;;;;;16.77;7.97;;;;;;;;;;4318660;33;20057;-71
2023/04/23 04:22:14;;;;;;;17.40;7.60;;;;;;;;;;4285053;33;20059;-75
2023/04/23 04:24:41;;;;;;;20.35;7.55;;;;;;;;;;4292070;33;20111;-72
2023/04/23 04:27:07;;;;;;;15.25;7.25;;;;;;;;;;4295919;33;20398;-71
2023/04/23 04:29:34;;;;;;;13.70;6.40;;;;;;;;;;4308117;33;20501;-71
2023/04/23 04:32:01;;;;;;;12.32;7.05;;;;;;;;;;4311949;33;20072;-71
2023/04/23 04:34:28;;;;;;;16.80;7.35;;;;;;;;;;4316631;33;20052;-74
2023/04/23 04:36:54;;;;;;;19.08;8.05;;;;;;;;;;4310734;33;20128;-72
2023/04/23 04:39:20;;;;;;;15.38;7.30;;;;;;;;;;4328556;33;20112;-73
2023/04/23 04:41:47;;;;;;;14.43;7.50;;;;;;;;;;4313501;33;20074;-71
2023/04/23 04:44:13;;;;;;;13.05;6.72;;;;;;;;;;4309032;33;20066;-72
2023/04/23 04:46:39;;;;;;;11.80;6.75;;;;;;;;;;4316957;33;20029;-72
2023/04/23 04:49:07;;;;;;;12.50;7.22;;;;;;;;;;4310701;33;20072;-71
2023/04/23 04:51:33;;;;;;;13.00;6.87;;;;;;;;;;4297428;33;20041;-71
2023/04/23 04:53:59;;;;;;;18.65;7.40;;;;;;;;;;4296558;33;20051;-71
2023/04/23 04:56:26;;;;;;;15.63;6.62;;;;;;;;;;4298432;33;20045;-71
2023/04/23 04:58:52;;;;;;;16.98;6.87;;;;;;;;;;4279786;33;20045;-73
2023/04/23 05:01:19;;;;;;;14.18;7.62;;;;;;;;;;4274711;33;20050;-73
2023/04/23 05:03:45;;;;;;;13.13;7.03;;;;;;;;;;4265834;33;20046;-73
2023/04/23 05:06:12;;;;;;;11.00;5.90;;;;;;;;;;4272314;33;20042;-73
2023/04/23 05:08:38;;;;;;;13.25;7.15;;;;;;;;;;4271424;33;20063;-75
2023/04/23 05:11:04;;;;;;;13.62;6.65;;;;;;;;;;4264845;33;20045;-73
2023/04/23 05:13:31;;;;;;;16.55;7.30;;;;;;;;;;4266264;33;20103;-74
2023/04/23 05:15:57;;;;;;;11.32;6.75;;;;;;;;;;4265500;33;20035;-75
2023/04/23 05:18:23;;;;;;;13.82;7.57;;;;;;;;;;4265698;33;20428;-73
2023/04/23 05:20:49;;;;;;;12.50;6.30;;;;;;;;;;4265884;33;20045;-73
2023/04/23 05:23:16;;;;;;;16.98;7.32;;;;;;;;;;4266003;33;20030;-79
2023/04/23 05:25:42;;;;;;;12.52;6.93;;;;;;;;;;4264027;33;20072;-74
2023/04/23 05:28:11;;;;;;;12.88;6.15;;;;;;;;;;4266416;33;20048;-73
2023/04/23 05:30:37;;;;;;;10.73;6.82;;;;;;;;;;4288506;33;20060;-74
2023/04/23 05:33:03;;;;;;;18.33;6.78;;;;;;;;;;4294089;33;20053;-74
2023/04/23 05:35:30;;;;;;;11.65;6.35;;;;;;;;;;4292260;33;20345;-74
2023/04/23 05:37:56;;;;;;;12.82;6.78;;;;;;;;;;4294165;33;20053;-73
2023/04/23 05:40:23;;;;;;;18.10;8.13;;;;;;;;;;4279709;33;20540;-74
2023/04/23 05:42:49;;;;;;;11.52;6.90;;;;;;;;;;4279657;33;20067;-74
2023/04/23 05:45:15;;;;;;;14.30;6.80;;;;;;;;;;4279309;33;20380;-79
2023/04/23 05:47:42;;;;;;;12.25;6.65;;;;;;;;;;4279415;33;20073;-82
2023/04/23 05:50:10;;;;;;;12.60;6.97;;;;;;;;;;4278632;33;20104;-73
2023/04/23 05:52:36;;;;;;;13.18;6.78;;;;;;;;;;4279962;33;20216;-73
2023/04/23 05:55:03;;;;;;;13.23;6.72;;;;;;;;;;4283486;33;20045;-73
2023/04/23 05:57:32;;;;;;;16.27;7.72;;;;;;;;;;4264000;33;20046;-76
2023/04/23 05:59:59;;;;;;;15.95;7.65;;;;;;;;;;4265534;33;20033;-74
2023/04/23 06:02:27;;;;;;;11.35;6.20;;;;;;;;;;4280142;33;20073;-73
2023/04/23 06:04:54;;;;;;;14.32;6.55;;;;;;;;;;4280144;33;20030;-73
2023/04/23 06:07:21;;;;;;;13.38;7.25;;;;;;;;;;4295669;33;20029;-72
2023/04/23 06:09:48;;;;;;;25.92;7.37;;;;;;;;;;4297410;33;20033;-73
2023/04/23 06:12:15;;;;;;;12.15;7.22;;;;;;;;;;4304490;33;20032;-75
2023/04/23 06:14:41;;;;;;;14.00;7.20;;;;;;;;;;4282135;33;20102;-77
2023/04/23 06:17:07;;;;;;;10.68;6.93;;;;;;;;;;4280012;33;20071;-74
2023/04/23 06:19:40;;;;;;;20.30;7.10;;;;;;;;;;4267810;33;20466;-73
2023/04/23 06:22:06;;;;;;;13.43;6.68;;;;;;;;;;4262581;33;20061;-80
2023/04/23 06:24:33;;;;;;;13.52;6.43;;;;;;;;;;4264950;33;20079;-75
2023/04/23 06:27:01;;;;;;;11.18;5.95;;;;;;;;;;4255195;33;20053;-72
2023/04/23 06:29:29;;;;;;;10.38;6.12;;;;;;;;;;4220280;33;20060;-70
2023/04/23 06:31:56;;;;;;;12.73;6.50;;;;;;;;;;4220940;33;20038;-74
2023/04/23 06:34:22;;;;;;;11.32;7.12;;;;;;;;;;4222531;33;20047;-72
2023/04/23 06:36:49;;;;;;;10.57;6.12;;;;;;;;;;4223030;33;20042;-77
2023/04/23 06:39:15;;;;;;;18.67;6.03;;;;;;;;;;4233701;33;20424;-72
2023/04/23 06:41:42;;;;;;;13.05;6.87;;;;;;;;;;4236214;33;20117;-72
2023/04/23 06:44:09;;;;;;;9.02;6.40;;;;;;;;;;4223329;33;20499;-73
2023/04/23 06:46:35;;;;;;;10.57;6.62;;;;;;;;;;4233044;33;20993;-72
2023/04/23 06:49:01;;;;;;;13.62;7.43;;;;;;;;;;4242140;33;20034;-72
2023/04/23 06:51:27;;;;;;;12.75;6.28;;;;;;;;;;4244259;33;20449;-73
2023/04/23 06:53:53;;;;;;;10.48;6.35;;;;;;;;;;4264927;33;20105;-74
2023/04/23 06:56:20;;;;;;;11.63;6.20;;;;;;;;;;4262592;33;20038;-73
2023/04/23 06:58:46;;;;;;;10.82;6.78;;;;;;;;;;4251047;33;20046;-73
2023/04/23 07:01:13;;;;;;;14.63;6.60;;;;;;;;;;4228699;33;20066;-73
2023/04/23 07:03:43;;;;;;;16.05;7.25;;;;;;;;;;4233795;33;20047;-74
2023/04/23 07:06:09;;;;;;;10.45;6.20;;;;;;;;;;4232905;33;20066;-73
2023/04/23 07:08:35;;;;;;;14.80;6.82;;;;;;;;;;4233322;33;20055;-76
2023/04/23 07:11:02;;;;;;;15.52;7.22;;;;;;;;;;4236102;33;20205;-71
2023/04/23 07:13:28;;;;;;;11.60;5.97;;;;;;;;;;4233512;33;20026;-73
2023/04/23 07:15:54;;;;;;;13.77;5.93;;;;;;;;;;4226482;33;20084;-73
2023/04/23 07:18:20;;;;;;;12.25;7.22;;;;;;;;;;4220183;33;20072;-75
2023/04/23 07:20:46;;;;;;;9.32;6.05;;;;;;;;;;4241178;33;20072;-73
2023/04/23 07:23:12;;;;;;;17.30;8.27;;;;;;;;;;4260999;33;20037;-74
2023/04/23 07:25:39;;;;;;;23.15;8.05;;;;;;;;;;4264619;33;20127;-73
2023/04/23 07:28:05;;;;;;;13.93;6.07;;;;;;;;;;4272159;33;20033;-72
2023/04/23 07:30:31;;;;;;;14.25;7.75;;;;;;;;;;4275178;33;20522;-75
2023/04/23 07:32:57;;;;;;;10.32;6.07;;;;;;;;;;4286202;33;20127;-73
2023/04/23 07:35:25;;;;;;;12.65;6.68;;;;;;;;;;4280691;33;20053;-72
2023/04/23 07:37:52;;;;;;;11.82;6.20;;;;;;;;;;4284939;33;20076;-72
2023/04/23 07:40:20;;;;;;;11.90;6.68;;;;;;;;;;4264310;33;20105;-72
2023/04/23 07:42:46;;;;;;;14.25;6.35;;;;;;;;;;4264311;33;20030;-77
2023/04/23 07:45:12;;;;;;;19.10;7.10;;;;;;;;;;4271288;33;20075;-72
2023/04/23 07:47:38;;;;;;;16.85;6.28;;;;;;;;;;4271273;33;20047;-74
2023/04/23 07:50:05;;;;;;;18.08;6.53;;;;;;;;;;4275534;33;20077;-73
2023/04/23 07:52:31;;;;;;;16.40;6.85;;;;;;;;;;4271366;33;20085;-72
2023/04/23 07:54:58;;;;;;;18.30;8.30;;;;;;;;;;4277889;33;20543;-72
2023/04/23 07:57:24;;;;;;;12.63;6.82;;;;;;;;;;4276229;33;20057;-71
2023/04/23 07:59:50;;;;;;;13.07;6.37;;;;;;;;;;4281085;33;20053;-71
2023/04/23 08:02:17;;;;;;;14.13;7.25;;;;;;;;;;4287565;33;20046;-71
2023/04/23 08:04:43;;;;;;;11.25;6.35;;;;;;;;;;4293973;33;20065;-74
2023/04/23 08:07:10;;;;;;;12.70;6.72;;;;;;;;;;4288080;33;20086;-78
2023/04/23 08:09:36;;;;;;;12.63;7.40;;;;;;;;;;4297287;33;20393;-73
2023/04/23 08:12:03;;;;;;;10.57;6.40;;;;;;;;;;4313024;33;20052;-73
2023/04/23 08:14:29;;;;;;;13.70;6.43;;;;;;;;;;4306731;33;20045;-74
2023/04/23 08:16:55;;;;;;;9.55;6.22;;;;;;;;;;4310702;33;20112;-72
2023/04/23 08:19:21;;;;;;;14.85;6.78;;;;;;;;;;4317560;33;20115;-78
2023/04/23 08:21:47;;;;;;;11.00;7.37;;;;;;;;;;4317530;33;20025;-82
2023/04/23 08:24:14;;;;;;;14.20;6.60;;;;;;;;;;4311901;33;20052;-72
2023/04/23 08:26:40;;;;;;;9.85;6.62;;;;;;;;;;4315828;33;20041;-74
2023/04/23 08:29:06;;;;;;;16.55;5.80;;;;;;;;;;4313287;33;20390;-71
2023/04/23 08:31:32;;;;;;;11.80;6.60;;;;;;;;;;4304346;33;20092;-77
2023/04/23 08:33:59;;;;;;;41.53;6.50;;;;;;;;;;4294243;33;20425;-71
2023/04/23 08:36:26;;;;;;;12.10;6.28;;;;;;;;;;4292829;33;20459;-71
2023/04/23 08:38:52;;;;;;;8.90;5.75;;;;;;;;;;4294138;33;20037;-73
2023/04/23 08:41:26;;;;;;;15.88;6.35;;;;;;;;;;4289634;33;20071;-72
2023/04/23 08:44:11;;;;;;;8.30;5.03;;;;;;;;;;4279568;33;20083;-72
2023/04/23 08:46:40;;;;;;;15.00;5.30;;;;;;;;;;4270616;33;20049;-71
2023/04/23 08:49:08;;;;;;;11.57;5.53;;;;;;;;;;4267075;33;20054;-74
2023/04/23 08:51:36;;;;;;;9.80;5.03;;;;;;;;;;4261510;33;20539;-73
2023/04/23 08:54:04;;;;;;;8.25;4.20;;;;;;;;;;4240725;33;20079;-71
2023/04/23 08:56:31;;;;;;;11.63;4.03;;;;;;;;;;4236961;33;20030;-71
2023/04/23 08:58:57;;;;;;;18.00;5.32;;;;;;;;;;4235835;33;20081;-74
2023/04/23 09:01:24;;;;;;;15.43;5.47;;;;;;;;;;4221165;33;20047;-72
2023/04/23 09:03:51;;;;;;;10.70;4.80;;;;;;;;;;4221142;33;20056;-72
2023/04/23 09:06:18;;;;;;;8.52;4.75;;;;;;;;;;4224378;34;20094;-73
2023/04/23 09:08:45;;;;;;;14.52;4.93;;;;;;;;;;4223494;33;20171;-72
2023/04/23 09:11:11;;;;;;;12.93;4.43;;;;;;;;;;4222641;33;20578;-72
2023/04/23 09:13:40;;;;;;;12.23;4.22;;;;;;;;;;4222215;33;20499;-79
2023/04/23 09:16:06;;;;;;;14.98;5.03;;;;;;;;;;4223002;33;20031;-74
2023/04/23 09:18:32;;;;;;;14.65;6.07;;;;;;;;;;4212698;34;20063;-74
2023/04/23 09:20:59;;;;;;;8.52;5.35;;;;;;;;;;4210327;34;20113;-72
2023/04/23 09:23:26;;;;;;;13.60;5.40;;;;;;;;;;4210898;34;20044;-73
2023/04/23 09:25:52;;;;;;;6.18;4.10;;;;;;;;;;4220235;34;20046;-76
2023/04/23 09:28:19;;;;;;;11.02;4.50;;;;;;;;;;4245132;33;20068;-74
2023/04/23 09:30:47;;;;;;;10.82;4.55;;;;;;;;;;4249327;33;20495;-75
2023/04/23 09:33:15;;;;;;;8.38;5.35;;;;;;;;;;4264263;33;20084;-73
2023/04/23 09:35:42;;;;;;;8.77;3.95;;;;;;;;;;4225505;33;20049;-73
2023/04/23 09:38:09;;;;;;;12.05;3.87;;;;;;;;;;4239906;33;20102;-78
2023/04/23 09:40:36;;;;;;;12.75;4.40;;;;;;;;;;4250595;33;20043;-73
2023/04/23 09:43:03;;;;;;;10.00;3.60;;;;;;;;;;4251574;33;20038;-72
2023/04/23 09:45:29;;;;;;;13.13;3.97;;;;;;;;;;4250411;33;20488;-72
2023/04/23 09:47:57;;;;;;;12.27;3.90;;;;;;;;;;4249675;33;20249;-73
2023/04/23 09:50:36;;;;;;;6.10;3.70;;;;;;;;;;4250275;33;20052;-72
2023/04/23 09:53:03;;;;;;;11.68;4.05;;;;;;;;;;4250672;33;20045;-71
2023/04/23 09:55:30;;;;;;;7.03;3.17;;;;;;;;;;4250970;33;20071;-71
2023/04/23 09:57:57;;;;;;;8.90;3.70;;;;;;;;;;4250429;33;20558;-75
2023/04/23 10:00:24;;;;;;;6.93;3.58;;;;;;;;;;4248638;33;20045;-72
2023/04/23 10:02:52;;;;;;;7.55;3.33;;;;;;;;;;4249309;33;20077;-72
2023/04/23 10:05:19;;;;;;;10.20;4.72;;;;;;;;;;4250659;33;20371;-71
2023/04/23 10:07:47;;;;;;;4.30;2.95;;;;;;;;;;4290506;33;20057;-73
2023/04/23 10:10:14;;;;;;;5.95;3.25;;;;;;;;;;4293232;33;20037;-76
2023/04/23 10:12:41;;;;;;;6.30;3.95;;;;;;;;;;4292238;33;20172;-72
2023/04/23 10:15:08;;;;;;;7.70;3.65;;;;;;;;;;4292720;33;20493;-72
2023/04/23 10:17:38;;;;;;;10.90;3.55;;;;;;;;;;4292141;33;20045;-72
2023/04/23 10:20:05;;;;;;;12.43;3.42;;;;;;;;;;4267334;33;20025;-74
2023/04/23 10:22:32;;;;;;;10.80;3.78;;;;;;;;;;4261674;33;20463;-73
2023/04/23 10:24:59;;;;;;;7.55;3.47;;;;;;;;;;4264161;33;20050;-75
2023/04/23 10:27:32;;;;;;;6.68;3.40;;;;;;;;;;4250200;33;20074;-73
2023/04/23 10:30:05;;;;;;;8.20;3.60;;;;;;;;;;4250275;33;20082;-76
2023/04/23 10:32:32;;;;;;;12.40;3.37;;;;;;;;;;4252088;33;20200;-72
2023/04/23 10:34:58;;;;;;;11.20;3.28;;;;;;;;;;4264890;33;20045;-74
2023/04/23 10:37:25;;;;;;;6.47;3.62;;;;;;;;;;4264938;33;20078;-75
2023/04/23 10:39:53;;;;;;;6.65;2.72;;;;;;;;;;4252276;33;20068;-72
2023/04/23 10:42:19;;;;;;;11.93;3.10;;;;;;;;;;4246807;33;20075;-74
2023/04/23 10:44:45;;;;;;;4.47;3.42;;;;;;;;;;4249716;33;20042;-73
2023/04/23 10:47:13;;;;;;;11.95;3.42;;;;;;;;;;4261873;33;20046;-73
2023/04/23 10:49:39;;;;;;;11.12;3.45;;;;;;;;;;4264292;33;20042;-75
2023/04/23 10:52:14;;;;;;;6.40;3.40;;;;;;;;;;4303031;33;20562;-72
2023/04/23 10:54:41;;;;;;;5.87;2.80;;;;;;;;;;4298976;33;20029;-73
2023/04/23 10:57:08;;;;;;;12.57;4.12;;;;;;;;;;4309406;33;20495;-72
2023/04/23 10:59:35;;;;;;;7.57;3.58;;;;;;;;;;4309751;33;20782;-74
2023/04/23 11:02:05;;;;;;;7.07;3.22;;;;;;;;;;4468102;27;20071;-75
2023/04/23 11:04:32;;;;;;;4.37;3.35;;;;;;;;;;4308900;33;20070;-75
2023/04/23 11:07:08;;;;;;;10.57;3.17;;;;;;;;;;4294055;33;20207;-73
2023/04/23 11:09:41;;;;;;;10.05;3.15;;;;;;;;;;4294779;33;20460;-73
2023/04/23 11:12:09;;;;;;;12.75;3.35;;;;;;;;;;4252314;33;20046;-72
2023/04/23 11:14:44;;;;;;;5.10;3.10;;;;;;;;;;4249348;33;20404;-73
2023/04/23 11:17:11;;;;;;;12.23;3.08;;;;;;;;;;4252575;33;20086;-73
2023/04/23 11:19:39;;;;;;;11.68;3.28;;;;;;;;;;4253499;33;20488;-73
2023/04/23 11:22:19;;;;;;;7.22;3.00;;;;;;;;;;4252787;33;20056;-72
2023/04/23 11:24:45;;;;;;;10.75;3.00;;;;;;;;;;4224360;33;20042;-73
2023/04/23 11:27:12;;;;;;;5.85;3.17;;;;;;;;;;4224457;33;20054;-72
2023/04/23 11:29:39;;;;;;;4.78;2.83;;;;;;;;;;4223297;34;20461;-73
2023/04/23 11:32:09;;;;;;;12.18;2.92;;;;;;;;;;4222126;34;20051;-74
2023/04/23 11:34:37;;;;;;;10.65;2.92;;;;;;;;;;4216971;33;20258;-75
2023/04/23 11:37:04;;;;;;;15.20;3.37;;;;;;;;;;4210776;34;20073;-74
2023/04/23 11:39:31;;;;;;;7.50;4.05;;;;;;;;;;4216269;33;20094;-72
2023/04/23 11:42:02;;;;;;;3.30;3.00;;;;;;;;;;4223646;33;20077;-79
2023/04/23 11:44:29;;;;;;;11.82;2.97;;;;;;;;;;4244758;33;20050;-73
2023/04/23 11:46:59;;;;;;;10.27;3.35;;;;;;;;;;4247836;33;20054;-71
2023/04/23 11:49:25;;;;;;;4.43;2.67;;;;;;;;;;4246897;33;20050;-71
2023/04/23 11:51:51;;;;;;;7.95;2.97;;;;;;;;;;4228268;33;20043;-71
2023/04/23 11:54:18;;;;;;;7.25;2.65;;;;;;;;;;4232032;33;20068;-72
2023/04/23 11:56:45;;;;;;;7.32;2.67;;;;;;;;;;4246227;33;20041;-71
2023/04/23 11:59:11;;;;;;;6.85;2.92;;;;;;;;;;4247051;33;20519;-72
2023/04/23 12:01:47;;;;;;;19.70;3.05;;;;;;;;;;4259214;33;20049;-72
2023/04/23 12:04:20;;;;;;;13.85;3.12;;;;;;;;;;4265226;33;20077;-76
2023/04/23 12:06:48;;;;;;;4.62;2.12;;;;;;;;;;4262830;33;20085;-71
2023/04/23 12:09:15;;;;;;;9.70;2.95;;;;;;;;;;4260300;33;20520;-72
2023/04/23 12:11:42;;;;;;;3.40;2.40;;;;;;;;;;4263716;33;20084;-70
2023/04/23 12:14:09;;;;;;;13.13;2.62;;;;;;;;;;4261098;33;20512;-74
2023/04/23 12:16:35;;;;;;;3.55;3.25;;;;;;;;;;4280600;33;20080;-72
2023/04/23 12:19:02;;;;;;;4.18;2.45;;;;;;;;;;4267634;33;20417;-71
2023/04/23 12:21:28;;;;;;;3.37;3.08;;;;;;;;;;4266510;33;20072;-72
2023/04/23 12:23:55;;;;;;;4.30;2.47;;;;;;;;;;4293336;33;20028;-71
2023/04/23 12:26:23;;;;;;;7.80;2.97;;;;;;;;;;4268187;33;20074;-75
2023/04/23 12:28:50;;;;;;;12.20;3.47;;;;;;;;;;4225386;33;20758;-70
2023/04/23 12:31:21;;;;;;;4.18;2.40;;;;;;;;;;4222474;33;20061;-72
2023/04/23 12:33:52;;;;;;;7.62;3.42;;;;;;;;;;4250898;33;20029;-74
2023/04/23 12:36:19;;;;;;;7.82;2.90;;;;;;;;;;4250152;33;20053;-72
2023/04/23 12:38:45;;;;;;;4.55;2.60;;;;;;;;;;4251366;33;20046;-71
2023/04/23 12:41:11;;;;;;;6.82;2.53;;;;;;;;;;4252080;33;20089;-71
2023/04/23 12:43:37;;;;;;;5.68;3.20;;;;;;;;;;4236759;33;20101;-71
2023/04/23 12:46:04;;;;;;;3.60;2.50;;;;;;;;;;4238444;33;20069;-71
2023/04/23 12:48:30;;;;;;;14.63;2.70;;;;;;;;;;4240240;33;20480;-71
2023/04/23 12:50:57;;;;;;;6.80;2.65;;;;;;;;;;4245921;33;20054;-70
2023/04/23 12:53:23;;;;;;;9.30;2.95;;;;;;;;;;4254433;33;20462;-71
2023/04/23 12:55:49;;;;;;;7.07;2.85;;;;;;;;;;4277668;33;20045;-71
2023/04/23 12:58:16;;;;;;;5.05;2.70;;;;;;;;;;4269056;33;20054;-70
2023/04/23 13:00:42;;;;;;;3.92;2.25;;;;;;;;;;4281461;33;20049;-71
2023/04/23 13:03:08;;;;;;;4.28;3.35;;;;;;;;;;4278076;33;20108;-71
2023/04/23 13:05:35;;;;;;;3.67;2.45;;;;;;;;;;4264022;33;20910;-71
2023/04/23 13:08:01;;;;;;;8.35;3.22;;;;;;;;;;4265329;33;20226;-70
2023/04/23 13:10:29;;;;;;;12.45;2.50;;;;;;;;;;4265412;33;20065;-71
2023/04/23 13:12:55;;;;;;;7.90;3.00;;;;;;;;;;4265371;33;20036;-72
2023/04/23 13:15:22;;;;;;;5.93;3.12;;;;;;;;;;4275330;33;20103;-71
2023/04/23 13:17:48;;;;;;;4.55;3.05;;;;;;;;;;4278166;33;20049;-72
2023/04/23 13:20:14;;;;;;;6.62;2.22;;;;;;;;;;4276752;33;20111;-72
2023/04/23 13:22:40;;;;;;;3.20;2.67;;;;;;;;;;4264527;33;20483;-72
2023/04/23 13:25:07;;;;;;;14.20;3.00;;;;;;;;;;4251884;33;20492;-75
2023/04/23 13:27:34;;;;;;;2.22;2.03;;;;;;;;;;4273320;33;20143;-72
2023/04/23 13:30:00;;;;;;;8.07;3.10;;;;;;;;;;4278760;33;20075;-72
2023/04/23 13:32:30;;;;;;;6.87;2.60;;;;;;;;;;4277799;33;20491;-68
2023/04/23 13:35:00;;;;;;;6.53;3.00;;;;;;;;;;4278655;33;20183;-70
2023/04/23 13:37:27;;;;;;;7.32;2.97;;;;;;;;;;4283207;33;20040;-71
2023/04/23 13:39:54;;;;;;;7.12;2.17;;;;;;;;;;4289159;33;20066;-71
2023/04/23 13:42:20;;;;;;;3.10;2.55;;;;;;;;;;4280508;33;20081;-72
2023/04/23 13:44:46;;;;;;;9.40;2.60;;;;;;;;;;4273600;33;20087;-71
2023/04/23 13:47:12;;;;;;;3.25;2.42;;;;;;;;;;4281005;33;20070;-73
2023/04/23 13:49:38;;;;;;;6.72;2.95;;;;;;;;;;4292350;33;20075;-70
2023/04/23 13:52:05;;;;;;;4.57;2.87;;;;;;;;;;4257385;33;20034;-70
2023/04/23 13:54:31;;;;;;;5.70;2.40;;;;;;;;;;4263590;33;20054;-71
2023/04/23 13:56:58;;;;;;;5.75;2.60;;;;;;;;;;4257850;33;20075;-71
2023/04/23 13:59:24;;;;;;;5.40;2.67;;;;;;;;;;4260678;33;20232;-71
2023/04/23 14:01:50;;;;;;;6.53;2.50;;;;;;;;;;4258925;33;20081;-70
2023/04/23 14:04:17;;;;;;;5.03;2.62;;;;;;;;;;4257257;33;20058;-72
2023/04/23 14:06:43;;;;;;;4.22;2.72;;;;;;;;;;4247899;33;20391;-72
2023/04/23 14:09:10;;;;;;;10.23;2.33;;;;;;;;;;4259996;33;20068;-72
2023/04/23 14:11:38;;;;;;;6.45;4.43;;;;;;;;;;4257120;33;20112;-76
2023/04/23 14:14:04;;;;;;;4.72;2.40;;;;;;;;;;4245324;33;20123;-71
2023/04/23 14:16:30;;;;;;;3.55;2.47;;;;;;;;;;4250065;33;20052;-71
2023/04/23 14:18:57;;;;;;;4.90;3.50;;;;;;;;;;4238587;33;20109;-72
2023/04/23 14:21:23;;;;;;;5.12;2.58;;;;;;;;;;4236424;33;20550;-72
2023/04/23 14:23:59;;;;;;;4.55;2.37;;;;;;;;;;4252729;33;20060;-73
2023/04/23 14:26:33;;;;;;;2.90;2.70;;;;;;;;;;4258181;33;20526;-70
2023/04/23 14:29:07;;;;;;;3.37;2.37;;;;;;;;;;4263834;33;20049;-72
2023/04/23 14:31:36;;;;;;;13.50;2.60;;;;;;;;;;4272609;33;20057;-70
2023/04/23 14:34:03;;;;;;;3.72;2.37;;;;;;;;;;4304237;33;20074;-70
2023/04/23 14:36:29;;;;;;;3.00;2.22;;;;;;;;;;4259743;33;20442;-74
2023/04/23 14:38:57;;;;;;;3.78;2.20;;;;;;;;;;4265928;33;20075;-71
2023/04/23 14:41:23;;;;;;;2.40;2.30;;;;;;;;;;4275681;33;20452;-70
2023/04/23 14:43:50;;;;;;;4.85;2.35;;;;;;;;;;4262781;33;20073;-75
2023/04/23 14:46:16;;;;;;;7.65;3.00;;;;;;;;;;4257702;33;20050;-72
2023/04/23 14:48:42;;;;;;;2.00;1.90;;;;;;;;;;4259089;33;20034;-69
2023/04/23 14:51:09;;;;;;;7.72;2.40;;;;;;;;;;4251505;33;20034;-70
2023/04/23 14:53:35;;;;;;;7.57;2.28;;;;;;;;;;4247665;33;20051;-69
2023/04/23 14:56:01;;;;;;;5.20;2.10;;;;;;;;;;4245780;33;20137;-72
2023/04/23 14:58:27;;;;;;;9.27;2.17;;;;;;;;;;4247427;33;20038;-68
2023/04/23 15:00:54;;;;;;;3.87;2.28;;;;;;;;;;4256547;33;20054;-69
2023/04/23 15:03:20;;;;;;;2.50;2.20;;;;;;;;;;4252311;33;20078;-75
2023/04/23 15:05:46;;;;;;;6.22;2.65;;;;;;;;;;4259891;33;20393;-71
2023/04/23 15:08:13;;;;;;;7.00;2.50;;;;;;;;;;4277821;33;20057;-71
2023/04/23 15:10:39;;;;;;;10.68;2.40;;;;;;;;;;4284294;33;20296;-69
2023/04/23 15:13:06;;;;;;;2.85;2.05;;;;;;;;;;4280587;33;20662;-69
2023/04/23 15:15:36;;;;;;;5.97;2.10;;;;;;;;;;4308454;33;20588;-70
2023/04/23 15:18:03;;;;;;;10.67;2.17;;;;;;;;;;4306004;33;20062;-72
2023/04/23 15:20:29;;;;;;;3.37;2.30;;;;;;;;;;4308077;33;20108;-71
2023/04/23 15:22:56;;;;;;;5.65;2.83;;;;;;;;;;4305793;33;20715;-72
2023/04/23 15:25:23;;;;;;;4.97;2.30;;;;;;;;;;4310654;33;20119;-70
2023/04/23 15:27:55;;;;;;;5.00;3.08;;;;;;;;;;4309004;33;20037;-71
2023/04/23 15:30:23;;;;;;;2.75;2.45;;;;;;;;;;4304622;33;20048;-71
2023/04/23 15:32:54;;;;;;;6.45;3.05;;;;;;;;;;4298056;33;20102;-71
2023/04/23 15:35:21;;;;;;;6.97;2.45;;;;;;;;;;4301260;33;20076;-71
2023/04/23 15:37:48;;;;;;;8.15;2.30;;;;;;;;;;4301149;33;20095;-71
2023/04/23 15:40:14;;;;;;;5.28;2.55;;;;;;;;;;4304005;33;20033;-74
2023/04/23 15:42:41;;;;;;;2.22;2.03;;;;;;;;;;4304630;33;20108;-71
2023/04/23 15:45:08;;;;;;;4.53;2.05;;;;;;;;;;4306469;33;20067;-70
2023/04/23 15:47:35;;;;;;;6.85;2.03;;;;;;;;;;4297220;33;20051;-71
2023/04/23 15:50:02;;;;;;;4.93;2.55;;;;;;;;;;4293939;33;20107;-70
2023/04/23 15:52:29;;;;;;;2.37;2.17;;;;;;;;;;4291800;33;20065;-71
2023/04/23 15:54:55;;;;;;;12.35;2.42;;;;;;;;;;4307229;33;20071;-70
2023/04/23 15:57:22;;;;;;;13.50;2.60;;;;;;;;;;4304022;33;20056;-70
2023/04/23 15:59:48;;;;;;;5.20;3.17;;;;;;;;;;4301135;33;20041;-71
2023/04/23 16:02:21;;;;;;;4.65;2.03;;;;;;;;;;4307212;33;20066;-71
2023/04/23 16:04:49;;;;;;;5.32;3.60;;;;;;;;;;4318379;33;20184;-70
2023/04/23 16:07:15;;;;;;;13.95;3.00;;;;;;;;;;4320987;33;20094;-70
2023/04/23 16:09:41;;;;;;;5.57;2.80;;;;;;;;;;4319923;33;20066;-71
2023/04/23 16:12:08;;;;;;;5.10;2.40;;;;;;;;;;4322017;33;20056;-71
2023/04/23 16:14:34;;;;;;;5.90;2.80;;;;;;;;;;4320309;33;20380;-72
2023/04/23 16:17:01;;;;;;;5.68;3.30;;;;;;;;;;4320055;33;20398;-70
2023/04/23 16:19:28;;;;;;;7.47;2.92;;;;;;;;;;4322579;33;20095;-71
2023/04/23 16:21:54;;;;;;;4.90;2.30;;;;;;;;;;4323331;33;20437;-71
2023/04/23 16:24:21;;;;;;;4.82;3.30;;;;;;;;;;4322502;33;20161;-70
2023/04/23 16:26:48;;;;;;;5.95;2.28;;;;;;;;;;4299167;33;20053;-74
2023/04/23 16:29:14;;;;;;;16.98;2.87;;;;;;;;;;4306351;33;20097;-71
2023/04/23 16:31:40;;;;;;;9.73;2.55;;;;;;;;;;4311078;33;20215;-71
2023/04/23 16:34:06;;;;;;;3.92;2.50;;;;;;;;;;4309560;33;20057;-70